Time,TemperatureF,DewpointF,PressureIn,WindDirection,WindDirectionDegrees,WindSpeedMPH,WindSpeedGustMPH,Humidity,HourlyPrecipIn,Conditions,Clouds,dailyrainin,SoftwareType,DateUTC
2017-05-28 00:04:00,64.1,61.4,29.77,ENE,65,0.0,0.0,91,0.00,RA,,0.00,WeatherDisplay:10.37,2017-05-28 05:04:00,
2017-05-28 00:09:00,63.9,61.2,29.77,ENE,58,0.0,0.0,91,0.00,RA,,0.00,WeatherDisplay:10.37,2017-05-28 05:09:00,
2017-05-28 00:14:00,63.8,61.1,29.77,ENE,63,3.0,3.0,91,0.00,CLR,,0.00,WeatherDisplay:10.37,2017-05-28 05:14:00,
2017-05-28 00:19:00,63.6,61.2,29.77,ENE,63,2.3,2.3,92,0.00,CLR,,0.00,WeatherDisplay:10.37,2017-05-28 05:19:00,
2017-05-28 00:24:00,63.4,61.0,29.77,ENE,71,0.0,0.0,92,0.00,CLR,,0.00,WeatherDisplay:10.37,2017-05-28 05:24:00,
2017-05-28 00:29:00,63.3,60.9,29.77,ENE,69,2.3,0.0,92,0.00,CLR,,0.00,WeatherDisplay:10.37,2017-05-28 05:29:00,
2017-05-28 00:34:00,63.2,60.8,29.76,ENE,59,0.0,0.0,92,0.00,CLR,,0.00,WeatherDisplay:10.37,2017-05-28 05:34:00,
2017-05-28 00:39:00,63.2,60.8,29.76,ENE,66,0.0,0.0,92,0.00,CLR,,0.00,WeatherDisplay:10.37,2017-05-28 05:39:00,
2017-05-28 00:44:00,63.2,60.8,29.77,ENE,75,0.0,0.0,92,0.00,CLR,,0.00,WeatherDisplay:10.37,2017-05-28 05:44:00,
2017-05-28 00:49:00,63.1,60.7,29.77,ENE,60,4.0,0.0,92,0.00,CLR,,0.00,WeatherDisplay:10.37,2017-05-28 05:49:00,
2017-05-28 00:54:00,63.0,60.6,29.77,ENE,61,0.0,0.0,92,0.00,CLR,,0.00,WeatherDisplay:10.37,2017-05-28 05:54:00,
2017-05-28 00:59:00,62.5,60.1,29.77,ENE,62,0.0,0.0,92,0.00,CLR,,0.00,WeatherDisplay:10.37,2017-05-28 05:59:00,
2017-05-28 01:04:00,62.2,59.8,29.77,NE,52,2.3,2.3,92,0.00,CLR,,0.00,WeatherDisplay:10.37,2017-05-28 06:04:00,
2017-05-28 01:09:00,62.0,60.0,29.76,NE,53,3.0,3.0,93,0.00,CLR,,0.00,WeatherDisplay:10.37,2017-05-28 06:09:00,
2017-05-28 01:14:00,62.2,60.2,29.76,ENE,77,3.5,3.5,93,0.00,CLR,,0.00,WeatherDisplay:10.37,2017-05-28 06:14:00,
2017-05-28 01:19:00,62.6,60.5,29.76,ENE,69,3.5,3.5,93,0.00,CLR,,0.00,WeatherDisplay:10.37,2017-05-28 06:19:00,
2017-05-28 01:24:00,62.7,60.6,29.76,ENE,71,3.5,3.5,93,0.00,CLR,,0.00,WeatherDisplay:10.37,2017-05-28 06:24:00,
2017-05-28 01:29:00,62.8,60.7,29.76,ENE,74,3.5,3.5,93,0.00,CLR,,0.00,WeatherDisplay:10.37,2017-05-28 06:29:00,
2017-05-28 01:34:00,62.5,60.4,29.75,ENE,69,3.0,3.0,93,0.00,CLR,,0.00,WeatherDisplay:10.37,2017-05-28 06:34:00,
2017-05-28 01:39:00,62.3,60.2,29.75,ENE,69,5.8,5.8,93,0.00,CLR,,0.00,WeatherDisplay:10.37,2017-05-28 06:39:00,
2017-05-28 01:44:00,62.2,60.2,29.75,ENE,66,0.0,0.0,93,0.00,CLR,,0.00,WeatherDisplay:10.37,2017-05-28 06:44:00,
2017-05-28 01:49:00,62.2,60.5,29.75,ENE,76,2.3,2.3,94,0.00,CLR,,0.00,WeatherDisplay:10.37,2017-05-28 06:49:00,
2017-05-28 01:51:00,62.2,60.5,29.75,East,83,4.6,4.6,94,0.00,CLR,,0.00,WeatherDisplay:10.37,2017-05-28 06:51:00,
2017-05-28 01:56:00,62.3,60.6,29.75,East,95,4.6,4.6,94,0.00,CLR,,0.00,WeatherDisplay:10.37,2017-05-28 06:56:00,
2017-05-28 02:01:00,62.4,60.7,29.75,East,85,2.3,2.3,94,0.00,CLR,,0.00,WeatherDisplay:10.37,2017-05-28 07:01:00,
2017-05-28 02:06:00,62.3,60.6,29.75,East,85,0.0,0.0,94,0.00,CLR,,0.00,WeatherDisplay:10.37,2017-05-28 07:06:00,
2017-05-28 02:11:00,62.1,60.4,29.75,ENE,63,0.0,0.0,94,0.00,CLR,,0.00,WeatherDisplay:10.37,2017-05-28 07:11:00,
2017-05-28 02:16:00,61.8,60.1,29.75,ENE,74,0.0,0.0,94,0.00,CLR,,0.00,WeatherDisplay:10.37,2017-05-28 07:16:00,
2017-05-28 02:21:00,61.8,60.1,29.75,ENE,74,0.0,0.0,94,0.00,CLR,,0.00,WeatherDisplay:10.37,2017-05-28 07:21:00,
2017-05-28 02:26:00,61.7,60.0,29.75,East,80,0.0,0.0,94,0.00,CLR,,0.00,WeatherDisplay:10.37,2017-05-28 07:26:00,
2017-05-28 02:31:00,61.6,60.2,29.75,East,80,0.0,0.0,95,0.00,CLR,,0.00,WeatherDisplay:10.37,2017-05-28 07:31:00,
2017-05-28 02:36:00,61.4,60.0,29.76,East,80,0.0,0.0,95,0.00,CLR,,0.00,WeatherDisplay:10.37,2017-05-28 07:36:00,
2017-05-28 02:41:00,61.1,59.4,29.75,East,80,0.0,0.0,94,0.00,CLR,,0.00,WeatherDisplay:10.37,2017-05-28 07:41:00,
2017-05-28 02:46:00,60.9,59.5,29.75,East,80,0.0,0.0,95,0.00,CLR,,0.00,WeatherDisplay:10.37,2017-05-28 07:46:00,
2017-05-28 02:51:00,61.0,59.6,29.75,East,80,0.0,0.0,95,0.00,CLR,,0.00,WeatherDisplay:10.37,2017-05-28 07:51:00,
2017-05-28 02:56:00,60.9,59.5,29.75,East,81,0.0,0.0,95,0.00,CLR,,0.00,WeatherDisplay:10.37,2017-05-28 07:56:00,
2017-05-28 03:01:00,61.0,59.9,29.75,East,81,0.0,0.0,96,0.00,CLR,,0.00,WeatherDisplay:10.37,2017-05-28 08:01:00,
2017-05-28 03:06:00,61.0,59.9,29.75,East,83,0.0,0.0,96,0.00,CLR,,0.00,WeatherDisplay:10.37,2017-05-28 08:06:00,
2017-05-28 03:07:00,60.9,59.8,29.75,East,83,0.0,0.0,96,0.00,CLR,,0.00,WeatherDisplay:10.37,2017-05-28 08:07:00,
2017-05-28 03:12:00,61.1,60.0,29.75,East,84,0.0,0.0,96,0.00,CLR,,0.00,WeatherDisplay:10.37,2017-05-28 08:12:00,
2017-05-28 03:17:00,61.1,60.0,29.74,East,84,0.0,0.0,96,0.00,CLR,,0.00,WeatherDisplay:10.37,2017-05-28 08:17:00,
2017-05-28 03:22:00,61.2,60.1,29.74,East,85,0.0,0.0,96,0.00,CLR,,0.00,WeatherDisplay:10.37,2017-05-28 08:22:00,
2017-05-28 03:27:00,61.2,60.1,29.74,East,86,0.0,0.0,96,0.00,CLR,,0.00,WeatherDisplay:10.37,2017-05-28 08:27:00,
2017-05-28 03:32:00,61.2,60.1,29.73,East,87,0.0,0.0,96,0.00,CLR,,0.00,WeatherDisplay:10.37,2017-05-28 08:32:00,
2017-05-28 03:37:00,61.1,60.0,29.73,East,86,0.0,0.0,96,0.00,CLR,,0.00,WeatherDisplay:10.37,2017-05-28 08:37:00,
2017-05-28 03:42:00,60.9,59.8,29.73,East,86,0.0,0.0,96,0.00,CLR,,0.00,WeatherDisplay:10.37,2017-05-28 08:42:00,
2017-05-28 03:47:00,60.7,59.6,29.72,East,86,0.0,0.0,96,0.00,CLR,,0.00,WeatherDisplay:10.37,2017-05-28 08:47:00,
2017-05-28 03:52:00,60.1,59.0,29.72,East,86,0.0,0.0,96,0.00,CLR,,0.00,WeatherDisplay:10.37,2017-05-28 08:52:00,
2017-05-28 03:57:00,59.7,58.6,29.72,East,86,0.0,0.0,96,0.00,CLR,,0.00,WeatherDisplay:10.37,2017-05-28 08:57:00,
2017-05-28 04:02:00,59.6,58.5,29.72,East,86,0.0,0.0,96,0.00,CLR,,0.00,WeatherDisplay:10.37,2017-05-28 09:02:00,
2017-05-28 04:07:00,59.5,58.4,29.71,East,86,0.0,0.0,96,0.00,CLR,,0.00,WeatherDisplay:10.37,2017-05-28 09:07:00,
2017-05-28 04:12:00,59.3,58.2,29.71,East,86,0.0,0.0,96,0.00,CLR,,0.00,WeatherDisplay:10.37,2017-05-28 09:12:00,
2017-05-28 04:17:00,59.2,58.1,29.71,East,86,0.0,0.0,96,0.00,CLR,,0.00,WeatherDisplay:10.37,2017-05-28 09:17:00,
2017-05-28 04:22:00,59.2,58.3,29.70,East,86,0.0,0.0,97,0.00,CLR,,0.00,WeatherDisplay:10.37,2017-05-28 09:22:00,
2017-05-28 04:27:00,59.3,58.4,29.70,East,86,0.0,0.0,97,0.00,CLR,,0.00,WeatherDisplay:10.37,2017-05-28 09:27:00,
2017-05-28 04:32:00,59.5,58.6,29.70,East,86,0.0,0.0,97,0.00,CLR,,0.00,WeatherDisplay:10.37,2017-05-28 09:32:00,
2017-05-28 04:37:00,59.6,58.7,29.70,East,86,0.0,0.0,97,0.00,CLR,,0.00,WeatherDisplay:10.37,2017-05-28 09:37:00,
2017-05-28 04:42:00,59.5,58.6,29.70,East,86,0.0,0.0,97,0.00,CLR,,0.00,WeatherDisplay:10.37,2017-05-28 09:42:00,
2017-05-28 04:47:00,59.3,58.4,29.70,East,86,0.0,0.0,97,0.00,CLR,,0.00,WeatherDisplay:10.37,2017-05-28 09:47:00,
2017-05-28 04:52:00,59.2,58.3,29.70,East,86,0.0,0.0,97,0.00,CLR,,0.00,WeatherDisplay:10.37,2017-05-28 09:52:00,
2017-05-28 04:57:00,59.1,58.2,29.70,East,86,0.0,0.0,97,0.00,CLR,,0.00,WeatherDisplay:10.37,2017-05-28 09:57:00,
2017-05-28 05:02:00,59.2,58.3,29.70,East,86,0.0,0.0,97,0.00,CLR,,0.00,WeatherDisplay:10.37,2017-05-28 10:02:00,
2017-05-28 05:07:00,59.6,58.7,29.70,East,87,0.0,0.0,97,0.00,CLR,,0.00,WeatherDisplay:10.37,2017-05-28 10:07:00,
2017-05-28 05:12:00,60.1,59.2,29.70,East,88,0.0,0.0,97,0.00,CLR,,0.00,WeatherDisplay:10.37,2017-05-28 10:12:00,
2017-05-28 05:13:00,60.1,59.2,29.70,East,87,0.0,0.0,97,0.00,CLR,,0.00,WeatherDisplay:10.37,2017-05-28 10:13:00,
2017-05-28 05:18:00,60.3,59.7,29.70,East,92,0.0,0.0,98,0.00,CLR,,0.00,WeatherDisplay:10.37,2017-05-28 10:18:00,
2017-05-28 05:23:00,60.3,59.4,29.69,East,93,0.0,0.0,97,0.00,CLR,,0.00,WeatherDisplay:10.37,2017-05-28 10:23:00,
2017-05-28 05:28:00,60.2,59.3,29.69,East,94,3.5,3.5,97,0.00,CLR,,0.00,WeatherDisplay:10.37,2017-05-28 10:28:00,
2017-05-28 05:33:00,60.2,59.3,29.69,ESE,111,0.0,0.0,97,0.00,CLR,,0.00,WeatherDisplay:10.37,2017-05-28 10:33:00,
2017-05-28 05:38:00,60.2,59.6,29.69,East,96,0.0,0.0,98,0.00,CLR,,0.00,WeatherDisplay:10.37,2017-05-28 10:38:00,
2017-05-28 05:43:00,60.2,59.6,29.69,East,97,0.0,0.0,98,0.00,CLR,,0.00,WeatherDisplay:10.37,2017-05-28 10:43:00,
2017-05-28 05:48:00,60.2,59.6,29.69,East,100,0.0,0.0,98,0.00,CLR,,0.00,WeatherDisplay:10.37,2017-05-28 10:48:00,
2017-05-28 05:53:00,60.0,59.1,29.70,East,101,0.0,0.0,97,0.00,CLR,,0.00,WeatherDisplay:10.37,2017-05-28 10:53:00,
2017-05-28 05:58:00,59.9,59.0,29.70,East,101,0.0,0.0,97,0.00,CLR,,0.00,WeatherDisplay:10.37,2017-05-28 10:58:00,
2017-05-28 06:03:00,59.9,59.0,29.70,SSE,150,4.0,4.0,97,0.00,CLR,,0.00,WeatherDisplay:10.37,2017-05-28 11:03:00,
2017-05-28 06:08:00,60.3,59.7,29.70,SSE,150,3.5,3.5,98,0.00,CLR,,0.00,WeatherDisplay:10.37,2017-05-28 11:08:00,
2017-05-28 06:13:00,60.3,59.7,29.70,SSE,150,1.0,1.0,98,0.00,CLR,,0.00,WeatherDisplay:10.37,2017-05-28 11:13:00,
2017-05-28 06:18:00,60.3,59.7,29.70,SSE,148,3.5,3.5,98,0.00,CLR,,0.00,WeatherDisplay:10.37,2017-05-28 11:18:00,
2017-05-28 06:23:00,60.3,59.7,29.70,SSE,148,2.3,0.0,98,0.00,CLR,,0.00,WeatherDisplay:10.37,2017-05-28 11:23:00,
2017-05-28 06:28:00,60.4,59.8,29.70,SSE,149,0.0,0.0,98,0.00,CLR,,0.00,WeatherDisplay:10.37,2017-05-28 11:28:00,
2017-05-28 06:34:00,60.7,60.1,29.70,SSE,149,0.0,0.0,98,0.00,CLR,,0.00,WeatherDisplay:10.37,2017-05-28 11:34:00,
2017-05-28 06:39:00,60.8,60.2,29.70,SSE,149,0.0,0.0,98,0.00,CLR,,0.00,WeatherDisplay:10.37,2017-05-28 11:39:00,
2017-05-28 06:44:00,60.9,60.3,29.70,SSE,150,0.0,0.0,98,0.00,CLR,,0.00,WeatherDisplay:10.37,2017-05-28 11:44:00,
2017-05-28 06:49:00,61.1,60.5,29.70,SSE,150,0.0,0.0,98,0.00,CLR,,0.00,WeatherDisplay:10.37,2017-05-28 11:49:00,
2017-05-28 06:54:00,61.2,60.6,29.70,SSE,152,3.5,3.5,98,0.00,CLR,,0.00,WeatherDisplay:10.37,2017-05-28 11:54:00,
2017-05-28 06:59:00,61.5,60.9,29.71,SSE,152,0.0,0.0,98,0.00,CLR,,0.00,WeatherDisplay:10.37,2017-05-28 11:59:00,
2017-05-28 07:04:00,61.8,61.2,29.71,SSE,154,0.0,0.0,98,0.00,CLR,,0.00,WeatherDisplay:10.37,2017-05-28 12:04:00,
2017-05-28 07:09:00,62.2,61.6,29.71,SSE,157,0.0,0.0,98,0.00,CLR,,0.00,WeatherDisplay:10.37,2017-05-28 12:09:00,
2017-05-28 07:14:00,62.3,61.7,29.71,SSE,156,0.0,0.0,98,0.00,CLR,,0.00,WeatherDisplay:10.37,2017-05-28 12:14:00,
2017-05-28 07:19:00,62.3,61.7,29.71,SSE,159,0.0,0.0,98,0.00,CLR,,0.00,WeatherDisplay:10.37,2017-05-28 12:19:00,
2017-05-28 07:24:00,62.6,61.7,29.72,SSE,168,0.0,0.0,97,0.00,CLR,,0.00,WeatherDisplay:10.37,2017-05-28 12:24:00,
2017-05-28 07:29:00,63.0,62.4,29.73,SW,215,3.5,3.5,98,0.00,CLR,,0.00,WeatherDisplay:10.37,2017-05-28 12:29:00,
2017-05-28 07:34:00,63.4,62.8,29.73,NE,54,2.3,2.3,98,0.00,CLR,,0.00,WeatherDisplay:10.37,2017-05-28 12:34:00,
2017-05-28 07:39:00,63.4,62.8,29.73,SSW,212,0.0,0.0,98,0.00,CLR,,0.00,WeatherDisplay:10.37,2017-05-28 12:39:00,
2017-05-28 07:44:00,63.3,62.4,29.73,WNW,295,2.3,2.3,97,0.00,CLR,,0.00,WeatherDisplay:10.37,2017-05-28 12:44:00,
2017-05-28 07:49:00,63.3,62.4,29.73,South,175,0.0,0.0,97,0.00,CLR,,0.00,WeatherDisplay:10.37,2017-05-28 12:49:00,
2017-05-28 07:54:00,63.3,62.4,29.73,NNE,30,0.0,0.0,97,0.00,CLR,,0.00,WeatherDisplay:10.37,2017-05-28 12:54:00,
2017-05-28 07:59:00,63.1,62.2,29.73,NNW,342,0.0,0.0,97,0.00,CLR,,0.00,WeatherDisplay:10.37,2017-05-28 12:59:00,
2017-05-28 08:04:00,63.1,62.2,29.73,NW,324,1.2,0.0,97,0.00,CLR,,0.00,WeatherDisplay:10.37,2017-05-28 13:04:00,
2017-05-28 08:09:00,62.9,62.0,29.74,NNW,333,3.5,3.5,97,0.00,CLR,,0.00,WeatherDisplay:10.37,2017-05-28 13:09:00,
2017-05-28 08:14:00,63.2,62.3,29.74,North,350,3.5,3.5,97,0.00,CLR,,0.00,WeatherDisplay:10.37,2017-05-28 13:14:00,
2017-05-28 08:19:00,63.4,62.5,29.74,NW,326,4.6,4.6,97,0.00,CLR,,0.00,WeatherDisplay:10.37,2017-05-28 13:19:00,
2017-05-28 08:20:00,63.4,62.2,29.74,NNW,341,4.0,4.0,96,0.00,CLR,,0.00,WeatherDisplay:10.37,2017-05-28 13:20:00,
2017-05-28 08:25:00,63.0,61.8,29.74,NNW,330,0.0,0.0,96,0.00,CLR,,0.00,WeatherDisplay:10.37,2017-05-28 13:25:00,
2017-05-28 08:30:00,62.8,61.6,29.74,NNW,329,1.2,1.2,96,0.00,CLR,,0.00,WeatherDisplay:10.37,2017-05-28 13:30:00,
2017-05-28 08:35:00,62.5,61.0,29.74,North,360,7.0,7.0,95,0.00,CLR,,0.00,WeatherDisplay:10.37,2017-05-28 13:35:00,
2017-05-28 08:40:00,62.2,60.8,29.74,NW,311,4.6,4.6,95,0.00,CLR,,0.00,WeatherDisplay:10.37,2017-05-28 13:40:00,
2017-05-28 08:45:00,62.1,60.7,29.74,NNW,338,3.5,3.5,95,0.01,RA,,0.01,WeatherDisplay:10.37,2017-05-28 13:45:00,
2017-05-28 08:50:00,61.9,60.5,29.74,North,349,5.0,5.0,95,0.01,RA,,0.01,WeatherDisplay:10.37,2017-05-28 13:50:00,
2017-05-28 08:55:00,61.9,60.7,29.74,NNW,344,6.9,6.9,96,0.01,CLR,,0.01,WeatherDisplay:10.37,2017-05-28 13:55:00,
2017-05-28 09:00:00,62.0,60.8,29.74,NNW,346,6.0,6.0,96,0.01,CLR,,0.01,WeatherDisplay:10.37,2017-05-28 14:00:00,
2017-05-28 09:05:00,62.0,60.8,29.74,NW,311,4.0,4.0,96,0.01,CLR,,0.01,WeatherDisplay:10.37,2017-05-28 14:05:00,
2017-05-28 09:10:00,62.3,61.1,29.74,North,355,6.0,6.0,96,0.01,CLR,,0.01,WeatherDisplay:10.37,2017-05-28 14:10:00,
2017-05-28 09:15:00,62.7,61.5,29.74,North,351,7.0,7.0,96,0.01,CLR,,0.01,WeatherDisplay:10.37,2017-05-28 14:15:00,
2017-05-28 09:20:00,63.0,61.5,29.74,NNW,343,8.1,8.1,95,0.01,CLR,,0.01,WeatherDisplay:10.37,2017-05-28 14:20:00,
2017-05-28 09:26:00,62.9,61.4,29.73,NNW,348,4.6,4.6,95,0.01,CLR,,0.01,WeatherDisplay:10.37,2017-05-28 14:26:00,
2017-05-28 09:31:00,63.1,61.6,29.73,North,349,6.0,6.0,95,0.01,CLR,,0.01,WeatherDisplay:10.37,2017-05-28 14:31:00,
2017-05-28 09:36:00,63.0,61.2,29.73,NNW,344,9.2,9.2,94,0.01,CLR,,0.01,WeatherDisplay:10.37,2017-05-28 14:36:00,
2017-05-28 09:41:00,62.5,60.7,29.73,NNW,344,5.8,5.8,94,0.00,CLR,,0.01,WeatherDisplay:10.37,2017-05-28 14:41:00,
2017-05-28 10:52:00,64.8,61.8,29.74,NNW,348,10.4,10.4,90,0.00,CLR,,0.01,WeatherDisplay:10.37,2017-05-28 15:52:00,
2017-05-28 10:57:00,64.7,61.7,29.74,NW,319,8.1,8.1,90,0.00,CLR,,0.01,WeatherDisplay:10.37,2017-05-28 15:57:00,
2017-05-28 11:02:00,64.8,61.8,29.74,NNW,340,5.8,5.8,90,0.00,CLR,,0.01,WeatherDisplay:10.37,2017-05-28 16:02:00,
2017-05-28 11:07:00,65.2,62.2,29.75,NW,305,5.0,5.0,90,0.00,CLR,,0.01,WeatherDisplay:10.37,2017-05-28 16:07:00,
2017-05-28 11:12:00,65.9,62.6,29.75,North,350,8.0,8.0,89,0.00,CLR,,0.01,WeatherDisplay:10.37,2017-05-28 16:12:00,
2017-05-28 11:13:00,66.2,62.5,29.74,NNW,342,8.1,8.1,88,0.00,CLR,,0.01,WeatherDisplay:10.37,2017-05-28 16:13:00,
2017-05-28 11:18:00,67.0,63.3,29.74,NNW,331,9.0,9.0,88,0.00,CLR,,0.01,WeatherDisplay:10.37,2017-05-28 16:18:00,
2017-05-28 11:23:00,66.9,62.6,29.74,NNW,343,7.0,7.0,86,0.00,CLR,,0.01,WeatherDisplay:10.37,2017-05-28 16:23:00,
2017-05-28 11:28:00,67.3,63.3,29.75,NW,312,6.0,6.0,87,0.00,CLR,,0.01,WeatherDisplay:10.37,2017-05-28 16:28:00,
2017-05-28 11:33:00,67.2,62.9,29.75,NNW,338,5.8,5.8,86,0.00,CLR,,0.01,WeatherDisplay:10.37,2017-05-28 16:33:00,
2017-05-28 11:38:00,67.1,61.8,29.75,NW,317,4.6,4.6,83,0.00,CLR,,0.01,WeatherDisplay:10.37,2017-05-28 16:38:00,
2017-05-28 11:43:00,67.4,62.7,29.75,NW,325,8.0,8.0,85,0.00,CLR,,0.01,WeatherDisplay:10.37,2017-05-28 16:43:00,
2017-05-28 11:48:00,68.1,62.7,29.75,North,350,9.0,9.0,83,0.00,CLR,,0.01,WeatherDisplay:10.37,2017-05-28 16:48:00,
2017-05-28 11:53:00,68.2,62.5,29.75,NNW,342,8.1,8.1,82,0.00,CLR,,0.01,WeatherDisplay:10.37,2017-05-28 16:53:00,
2017-05-28 11:58:00,69.0,63.3,29.75,NNW,329,5.8,5.8,82,0.00,CLR,,0.01,WeatherDisplay:10.37,2017-05-28 16:58:00,
2017-05-28 12:03:00,68.9,62.5,29.75,NNW,346,11.5,11.5,80,0.00,CLR,,0.01,WeatherDisplay:10.37,2017-05-28 17:03:00,
2017-05-28 12:08:00,69.2,63.1,29.75,NNW,331,3.0,3.0,81,0.00,CLR,,0.01,WeatherDisplay:10.37,2017-05-28 17:08:00,
2017-05-28 12:13:00,69.6,62.4,29.75,North,9,3.5,3.5,78,0.00,CLR,,0.01,WeatherDisplay:10.37,2017-05-28 17:13:00,
2017-05-28 12:18:00,69.9,61.6,29.75,NNE,19,9.2,9.2,75,0.00,CLR,,0.01,WeatherDisplay:10.37,2017-05-28 17:18:00,
2017-05-28 12:23:00,69.7,61.4,29.75,NW,319,8.1,8.1,75,0.00,CLR,,0.01,WeatherDisplay:10.37,2017-05-28 17:23:00,
2017-05-28 12:28:00,69.8,61.9,29.75,North,5,8.1,8.1,76,0.00,CLR,,0.01,WeatherDisplay:10.37,2017-05-28 17:28:00,
2017-05-28 12:33:00,69.8,62.3,29.75,North,350,3.5,3.5,77,0.00,CLR,,0.01,WeatherDisplay:10.37,2017-05-28 17:33:00,
2017-05-28 12:38:00,69.5,60.5,29.75,NNW,344,9.2,9.2,73,0.00,CLR,,0.01,WeatherDisplay:10.37,2017-05-28 17:38:00,
2017-05-28 12:43:00,69.2,60.2,29.75,NW,307,7.0,7.0,73,0.00,CLR,,0.01,WeatherDisplay:10.37,2017-05-28 17:43:00,
2017-05-28 12:48:00,69.4,60.0,29.75,NNW,330,5.0,5.0,72,0.00,CLR,,0.01,WeatherDisplay:10.37,2017-05-28 17:48:00,
2017-05-28 12:53:00,70.2,61.5,29.75,North,355,5.8,5.8,74,0.00,CLR,,0.01,WeatherDisplay:10.37,2017-05-28 17:53:00,
2017-05-28 12:58:00,71.1,61.2,29.75,NNW,340,2.3,2.3,71,0.00,CLR,,0.01,WeatherDisplay:10.37,2017-05-28 17:58:00,
2017-05-28 13:03:00,70.7,56.6,29.75,NNW,340,5.8,5.8,61,0.00,CLR,,0.01,WeatherDisplay:10.37,2017-05-28 18:03:00,
2017-05-28 13:08:00,71.3,59.4,29.74,NNW,333,8.1,8.1,66,0.00,CLR,,0.01,WeatherDisplay:10.37,2017-05-28 18:08:00,
2017-05-28 13:10:00,71.3,57.2,29.74,NNW,344,6.9,6.9,61,0.00,CLR,,0.01,WeatherDisplay:10.37,2017-05-28 18:10:00,
2017-05-28 13:15:00,71.3,58.1,29.74,West,265,4.6,4.6,63,0.00,CLR,,0.01,WeatherDisplay:10.37,2017-05-28 18:15:00,
2017-05-28 13:20:00,71.2,57.1,29.74,NNE,13,0.0,0.0,61,0.00,CLR,,0.01,WeatherDisplay:10.37,2017-05-28 18:20:00,
2017-05-28 13:25:00,71.6,58.3,29.74,NW,317,3.0,3.0,63,0.00,CLR,,0.01,WeatherDisplay:10.37,2017-05-28 18:25:00,
2017-05-28 13:30:00,72.4,60.4,29.74,North,349,8.1,8.1,66,0.00,CLR,,0.01,WeatherDisplay:10.37,2017-05-28 18:30:00,
2017-05-28 13:35:00,72.1,59.2,29.74,North,360,1.2,1.2,64,0.00,CLR,,0.01,WeatherDisplay:10.37,2017-05-28 18:35:00,
2017-05-28 13:40:00,71.9,56.8,29.74,WNW,291,6.9,6.9,59,0.00,CLR,,0.01,WeatherDisplay:10.37,2017-05-28 18:40:00,
2017-05-28 13:45:00,72.2,56.1,29.74,NE,43,0.0,0.0,57,0.00,CLR,,0.01,WeatherDisplay:10.37,2017-05-28 18:45:00,
2017-05-28 13:50:00,72.1,57.4,29.74,North,360,10.4,10.4,60,0.00,CLR,,0.01,WeatherDisplay:10.37,2017-05-28 18:50:00,
2017-05-28 13:55:00,72.1,56.5,29.75,North,351,4.6,4.6,58,0.00,CLR,,0.01,WeatherDisplay:10.37,2017-05-28 18:55:00,
2017-05-28 14:00:00,72.4,60.0,29.74,North,355,0.0,0.4,65,0.00,CLR,,0.01,WeatherDisplay:10.37,2017-05-28 19:00:00,
2017-05-28 14:05:00,72.8,58.6,29.75,North,355,1.2,0.0,61,0.00,CLR,,0.01,WeatherDisplay:10.37,2017-05-28 19:05:00,
2017-05-28 14:10:00,72.6,58.4,29.75,West,261,2.3,2.3,61,0.00,CLR,,0.01,WeatherDisplay:10.37,2017-05-28 19:10:00,
2017-05-28 14:17:00,73.1,58.4,29.74,SW,236,3.5,3.5,60,0.00,CLR,,0.01,WeatherDisplay:10.37,2017-05-28 19:17:00,
2017-05-28 14:22:00,73.3,59.5,29.74,NW,325,2.3,2.3,62,0.00,CLR,,0.01,WeatherDisplay:10.37,2017-05-28 19:22:00,
2017-05-28 14:27:00,73.2,59.4,29.74,NNW,346,1.2,0.0,62,0.00,CLR,,0.01,WeatherDisplay:10.37,2017-05-28 19:27:00,
2017-05-28 14:32:00,73.2,59.8,29.74,NE,49,2.3,2.3,63,0.00,CLR,,0.01,WeatherDisplay:10.37,2017-05-28 19:32:00,
2017-05-28 14:37:00,73.5,59.7,29.74,NNW,345,3.5,3.5,62,0.00,CLR,,0.01,WeatherDisplay:10.37,2017-05-28 19:37:00,
2017-05-28 14:42:00,73.0,58.8,29.74,WSW,246,3.5,3.5,61,0.00,CLR,,0.01,WeatherDisplay:10.37,2017-05-28 19:42:00,
2017-05-28 14:47:00,72.8,59.5,29.74,South,182,3.5,3.5,63,0.00,CLR,,0.01,WeatherDisplay:10.37,2017-05-28 19:47:00,
2017-05-28 14:52:00,73.2,59.4,29.74,NW,323,3.5,3.5,62,0.00,CLR,,0.01,WeatherDisplay:10.37,2017-05-28 19:52:00,
2017-05-28 14:57:00,73.6,57.9,29.74,NE,40,0.0,0.0,58,0.00,CLR,,0.01,WeatherDisplay:10.37,2017-05-28 19:57:00,
2017-05-28 15:02:00,73.4,58.7,29.74,NNW,346,4.0,4.0,60,0.00,CLR,,0.01,WeatherDisplay:10.37,2017-05-28 20:02:00,
2017-05-28 15:07:00,73.3,58.6,29.73,WSW,256,3.5,3.5,60,0.00,CLR,,0.01,WeatherDisplay:10.37,2017-05-28 20:07:00,
2017-05-28 15:12:00,74.0,58.8,29.73,SW,223,9.2,9.2,59,0.00,CLR,,0.01,WeatherDisplay:10.37,2017-05-28 20:12:00,
2017-05-28 15:17:00,74.1,58.4,29.73,SW,219,11.5,11.5,58,0.00,CLR,,0.01,WeatherDisplay:10.37,2017-05-28 20:17:00,
2017-05-28 15:22:00,74.3,57.6,29.73,ENE,60,3.5,3.5,56,0.00,CLR,,0.01,WeatherDisplay:10.37,2017-05-28 20:22:00,
2017-05-28 15:27:00,73.8,57.6,29.73,North,355,3.5,3.5,57,0.00,CLR,,0.01,WeatherDisplay:10.37,2017-05-28 20:27:00,
2017-05-28 15:32:00,73.4,57.7,29.73,North,355,2.3,2.3,58,0.00,CLR,,0.01,WeatherDisplay:10.37,2017-05-28 20:32:00,
2017-05-28 15:37:00,73.7,58.5,29.72,WSW,240,8.0,8.0,59,0.00,CLR,,0.01,WeatherDisplay:10.37,2017-05-28 20:37:00,
2017-05-28 15:42:00,74.2,59.9,29.72,SW,232,10.4,10.4,61,0.00,CLR,,0.01,WeatherDisplay:10.37,2017-05-28 20:42:00,
2017-05-28 15:47:00,73.9,58.7,29.72,WNW,286,16.1,16.1,59,0.00,CLR,,0.01,WeatherDisplay:10.37,2017-05-28 20:47:00,
2017-05-28 15:52:00,73.9,61.4,29.72,East,92,3.5,3.5,65,0.00,CLR,,0.01,WeatherDisplay:10.37,2017-05-28 20:52:00,
2017-05-28 15:57:00,74.5,57.8,29.72,SW,236,5.0,5.0,56,0.00,CLR,,0.01,WeatherDisplay:10.37,2017-05-28 20:57:00,
2017-05-28 16:02:00,74.7,58.0,29.72,West,265,8.1,8.1,56,0.00,CLR,,0.01,WeatherDisplay:10.37,2017-05-28 21:02:00,
2017-05-28 16:07:00,74.8,59.0,29.72,SW,221,9.2,9.2,58,0.00,CLR,,0.01,WeatherDisplay:10.37,2017-05-28 21:07:00,
2017-05-28 16:12:00,73.2,56.6,29.72,West,265,1.2,1.2,56,0.00,CLR,,0.01,WeatherDisplay:10.37,2017-05-28 21:12:00,
2017-05-28 16:17:00,72.6,56.5,29.72,WNW,288,11.5,11.5,57,0.00,CLR,,0.01,WeatherDisplay:10.37,2017-05-28 21:17:00,
2017-05-28 16:22:00,72.1,57.0,29.72,WSW,248,7.0,7.0,59,0.00,CLR,,0.01,WeatherDisplay:10.37,2017-05-28 21:22:00,
2017-05-28 16:28:00,72.1,58.4,29.72,NW,313,3.5,3.5,62,0.00,CLR,,0.01,WeatherDisplay:10.37,2017-05-28 21:28:00,
2017-05-28 16:32:00,73.5,58.8,29.72,NE,46,9.2,9.2,60,0.00,CLR,,0.01,WeatherDisplay:10.37,2017-05-28 21:32:00,
2017-05-28 16:37:00,73.8,58.6,29.72,WNW,300,3.5,3.5,59,0.00,CLR,,0.01,WeatherDisplay:10.37,2017-05-28 21:37:00,
2017-05-28 16:42:00,73.2,58.0,29.72,WSW,256,9.0,9.0,59,0.00,CLR,,0.01,WeatherDisplay:10.37,2017-05-28 21:42:00,
2017-05-28 16:47:00,73.7,58.9,29.71,SW,225,5.0,5.0,60,0.00,CLR,,0.01,WeatherDisplay:10.37,2017-05-28 21:47:00,
2017-05-28 16:52:00,74.7,57.5,29.71,SSW,206,15.0,15.0,55,0.00,CLR,,0.01,WeatherDisplay:10.37,2017-05-28 21:52:00,
2017-05-28 16:57:00,74.9,58.1,29.72,SW,226,17.3,17.3,56,0.00,CLR,,0.01,WeatherDisplay:10.37,2017-05-28 21:57:00,
2017-05-28 17:02:00,74.1,58.9,29.72,WSW,238,8.1,8.1,59,0.00,CLR,,0.01,WeatherDisplay:10.37,2017-05-28 22:02:00,
2017-05-28 17:07:00,73.9,58.2,29.72,NW,312,9.2,9.2,58,0.00,CLR,,0.01,WeatherDisplay:10.37,2017-05-28 22:07:00,
2017-05-28 17:12:00,74.5,59.2,29.71,SW,236,15.0,15.0,59,0.00,CLR,,0.01,WeatherDisplay:10.37,2017-05-28 22:12:00,
2017-05-28 17:17:00,74.2,58.0,29.72,WSW,243,13.8,13.8,57,0.00,CLR,,0.01,WeatherDisplay:10.37,2017-05-28 22:17:00,
2017-05-28 17:22:00,74.2,58.5,29.72,East,99,5.8,5.8,58,0.00,CLR,,0.01,WeatherDisplay:10.37,2017-05-28 22:22:00,
2017-05-28 17:27:00,73.8,58.1,29.72,SSW,211,8.1,8.1,58,0.00,CLR,,0.01,WeatherDisplay:10.37,2017-05-28 22:27:00,
2017-05-28 17:33:00,73.9,58.2,29.72,South,189,11.5,11.5,58,0.00,CLR,,0.01,WeatherDisplay:10.37,2017-05-28 22:33:00,
2017-05-28 17:37:00,73.7,57.5,29.72,NNW,345,9.2,9.2,57,0.00,CLR,,0.01,WeatherDisplay:10.37,2017-05-28 22:37:00,
2017-05-28 17:42:00,73.6,57.4,29.72,WSW,240,3.5,3.5,57,0.00,CLR,,0.01,WeatherDisplay:10.37,2017-05-28 22:42:00,
2017-05-28 17:47:00,73.2,57.1,29.72,West,264,5.8,5.8,57,0.00,CLR,,0.01,WeatherDisplay:10.37,2017-05-28 22:47:00,
2017-05-28 17:53:00,73.3,57.6,29.72,NNE,19,6.9,6.9,58,0.00,CLR,,0.01,WeatherDisplay:10.37,2017-05-28 22:53:00,
2017-05-28 17:57:00,73.3,56.2,29.72,SSE,151,9.2,9.2,55,0.00,CLR,,0.01,WeatherDisplay:10.37,2017-05-28 22:57:00,
2017-05-28 18:02:00,73.0,55.9,29.72,SW,232,11.5,11.5,55,0.00,CLR,,0.01,WeatherDisplay:10.37,2017-05-28 23:02:00,
2017-05-28 18:07:00,73.0,55.4,29.72,West,276,3.0,3.0,54,0.00,CLR,,0.01,WeatherDisplay:10.37,2017-05-28 23:07:00,
2017-05-28 18:12:00,72.7,54.6,29.72,NW,318,3.5,4.2,53,0.00,CLR,,0.01,WeatherDisplay:10.37,2017-05-28 23:12:00,
2017-05-28 18:18:00,72.8,55.2,29.72,West,275,3.5,3.5,54,0.00,CLR,,0.01,WeatherDisplay:10.37,2017-05-28 23:18:00,
2017-05-28 18:23:00,72.7,53.5,29.72,North,355,13.8,13.8,51,0.00,CLR,,0.01,WeatherDisplay:10.37,2017-05-28 23:23:00,
2017-05-28 18:28:00,72.7,52.4,29.72,South,169,6.9,6.9,49,0.00,CLR,,0.01,WeatherDisplay:10.37,2017-05-28 23:28:00,
2017-05-28 18:33:00,72.7,54.1,29.72,WNW,283,4.6,4.6,52,0.00,CLR,,0.01,WeatherDisplay:10.37,2017-05-28 23:33:00,
2017-05-28 18:38:00,72.6,52.3,29.73,West,275,16.1,16.1,49,0.00,CLR,,0.01,WeatherDisplay:10.37,2017-05-28 23:38:00,
2017-05-28 18:43:00,72.4,52.2,29.73,WNW,295,11.5,11.5,49,0.00,CLR,,0.01,WeatherDisplay:10.37,2017-05-28 23:43:00,
2017-05-28 18:48:00,72.5,52.8,29.73,WSW,238,10.4,10.4,50,0.00,CLR,,0.01,WeatherDisplay:10.37,2017-05-28 23:48:00,
2017-05-28 18:53:00,72.3,52.6,29.73,SSE,163,9.2,9.2,50,0.00,CLR,,0.01,WeatherDisplay:10.37,2017-05-28 23:53:00,
2017-05-28 18:58:00,71.8,52.7,29.73,WSW,243,3.5,3.5,51,0.00,CLR,,0.01,WeatherDisplay:10.37,2017-05-28 23:58:00,
2017-05-28 19:03:00,71.2,52.7,29.73,WSW,250,6.9,6.9,52,0.00,CLR,,0.01,WeatherDisplay:10.37,2017-05-29 00:03:00,
2017-05-28 19:08:00,71.3,53.3,29.73,WSW,250,5.8,5.8,53,0.00,CLR,,0.01,WeatherDisplay:10.37,2017-05-29 00:08:00,
2017-05-28 19:13:00,71.5,52.4,29.73,WSW,254,3.0,3.0,51,0.00,CLR,,0.01,WeatherDisplay:10.37,2017-05-29 00:13:00,
2017-05-28 19:18:00,71.5,54.0,29.73,SW,230,3.5,3.5,54,0.00,CLR,,0.01,WeatherDisplay:10.37,2017-05-29 00:18:00,
2017-05-28 19:23:00,71.3,53.3,29.73,WSW,240,3.5,3.5,53,0.00,CLR,,0.01,WeatherDisplay:10.37,2017-05-29 00:23:00,
2017-05-28 19:28:00,71.1,53.1,29.73,SW,234,3.5,3.5,53,0.00,CLR,,0.01,WeatherDisplay:10.37,2017-05-29 00:28:00,
2017-05-28 19:33:00,70.6,53.6,29.73,West,275,2.3,2.3,55,0.00,CLR,,0.01,WeatherDisplay:10.37,2017-05-29 00:33:00,
2017-05-28 19:38:00,70.3,53.4,29.73,SW,217,0.0,0.0,55,0.00,CLR,,0.01,WeatherDisplay:10.37,2017-05-29 00:38:00,
2017-05-28 19:43:00,69.9,53.0,29.73,West,281,6.9,6.9,55,0.00,CLR,,0.01,WeatherDisplay:10.37,2017-05-29 00:43:00,
2017-05-28 19:48:00,69.8,52.9,29.73,SW,234,0.0,0.0,55,0.00,CLR,,0.01,WeatherDisplay:10.37,2017-05-29 00:48:00,
2017-05-28 19:53:00,69.0,53.1,29.73,SW,235,0.0,0.0,57,0.00,CLR,,0.01,WeatherDisplay:10.37,2017-05-29 00:53:00,
2017-05-28 19:58:00,68.5,52.2,29.73,NE,43,1.2,1.2,56,0.00,CLR,,0.01,WeatherDisplay:10.37,2017-05-29 00:58:00,
2017-05-28 20:03:00,68.2,52.4,29.73,West,261,0.0,0.0,57,0.00,CLR,,0.01,WeatherDisplay:10.37,2017-05-29 01:03:00,
2017-05-28 20:08:00,67.8,52.5,29.73,WSW,258,3.5,3.5,58,0.00,CLR,,0.01,WeatherDisplay:10.37,2017-05-29 01:08:00,
2017-05-28 20:13:00,67.4,52.6,29.74,West,281,0.0,0.0,59,0.00,CLR,,0.01,WeatherDisplay:10.37,2017-05-29 01:13:00,
2017-05-28 20:18:00,67.0,52.2,29.74,WSW,248,2.3,2.3,59,0.00,CLR,,0.01,WeatherDisplay:10.37,2017-05-29 01:18:00,
2017-05-28 20:23:00,67.0,52.2,29.74,WSW,246,0.0,0.0,59,0.00,CLR,,0.01,WeatherDisplay:10.37,2017-05-29 01:23:00,
2017-05-28 20:28:00,66.7,52.4,29.74,WSW,248,0.0,0.0,60,0.00,CLR,,0.01,WeatherDisplay:10.37,2017-05-29 01:28:00,
2017-05-28 20:33:00,66.4,52.1,29.74,WSW,248,2.3,2.3,60,0.00,CLR,,0.01,WeatherDisplay:10.37,2017-05-29 01:33:00,
2017-05-28 20:38:00,66.2,52.3,29.74,SW,236,2.3,2.3,61,0.00,CLR,,0.01,WeatherDisplay:10.37,2017-05-29 01:38:00,
2017-05-28 20:43:00,66.1,52.3,29.74,WSW,246,3.5,3.5,61,0.00,CLR,,0.01,WeatherDisplay:10.37,2017-05-29 01:43:00,
2017-05-28 20:48:00,65.9,52.5,29.74,WSW,254,1.2,1.2,62,0.00,CLR,,0.01,WeatherDisplay:10.37,2017-05-29 01:48:00,
2017-05-28 20:53:00,65.8,52.4,29.74,WSW,244,3.5,3.5,62,0.00,CLR,,0.01,WeatherDisplay:10.37,2017-05-29 01:53:00,
2017-05-28 20:58:00,66.0,52.2,29.74,WSW,241,0.0,0.0,61,0.00,CLR,,0.01,WeatherDisplay:10.37,2017-05-29 01:58:00,
2017-05-28 21:03:00,66.2,52.3,29.74,SW,235,3.5,3.5,61,0.00,CLR,,0.01,WeatherDisplay:10.37,2017-05-29 02:03:00,
2017-05-28 21:08:00,66.5,52.2,29.74,WSW,250,3.5,3.5,60,0.00,CLR,,0.01,WeatherDisplay:10.37,2017-05-29 02:08:00,
2017-05-28 21:13:00,66.6,52.7,29.74,SW,234,0.0,0.0,61,0.00,CLR,,0.01,WeatherDisplay:10.37,2017-05-29 02:13:00,
2017-05-28 21:18:00,66.5,52.6,29.74,SSW,198,4.0,4.0,61,0.00,CLR,,0.01,WeatherDisplay:10.37,2017-05-29 02:18:00,
2017-05-28 21:23:00,66.6,52.7,29.74,SSW,198,3.5,3.5,61,0.00,CLR,,0.01,WeatherDisplay:10.37,2017-05-29 02:23:00,
2017-05-28 21:28:00,66.6,52.7,29.74,SW,232,3.5,3.5,61,0.00,CLR,,0.01,WeatherDisplay:10.37,2017-05-29 02:28:00,